^^
Station Historical Data
Daily Summary for May 17, 2018 Units:  Metric    English   Both
« Previous Day
Next Day »
Daily Weekly Monthly Yearly Custom
  High: Low: Average:
Temperature: 19.8 °C 13.4 °C 15.9 °C
Dew Point: 14.3 °C 6.8 °C 11.2 °C
Humidity: 91% 51% 75%
Wind Speed: 41.8km/h 3.2km/h 18km/h
Wind Gust: 54.7km/h - -
Wind- - ESE
Pressure: 1009.7 hPa 1003.9 hPa -
Precipitation: 3.56 mm    
Historical Graphs
 
 
Tabular Data for May 17, 2018
Time Temperature Dew Point Pressure Wind Wind Speed Wind Gust Humidity Rainfall Rate (Hourly) solar Conditions
00:03 19.8 °C 10.5 °C 1007.7 hPa ENE 20.9 km/h 38.6 km/h 55% 0 mm 0 W/m2
00:08 19.7 °C 10.4 °C 1007.3 hPa East 20.9 km/h 40.2 km/h 55% 0 mm 0 W/m2
00:13 19.5 °C 9.9 °C 1007.7 hPa ENE 20.9 km/h 40.2 km/h 54% 0 mm 0 W/m2
00:18 19.4 °C 9.8 °C 1007.7 hPa ENE 20.9 km/h 38.6 km/h 54% 0 mm 0 W/m2
00:23 19.3 °C 9.5 °C 1007.7 hPa ESE 27.4 km/h 43.5 km/h 53% 0 mm 0 W/m2
00:28 19.2 °C 9.3 °C 1007.7 hPa East 32.2 km/h 43.5 km/h 53% 0 mm 0 W/m2
00:33 19.1 °C 8.9 °C 1007.7 hPa NE 16.1 km/h 40.2 km/h 52% 0 mm 0 W/m2
00:38 18.9 °C 8.9 °C 1007.7 hPa East 29 km/h 40.2 km/h 52% 0 mm 0 W/m2
00:43 18.9 °C 8.8 °C 1007.7 hPa East 25.7 km/h 38.6 km/h 52% 0 mm 0 W/m2
00:48 18.8 °C 8.4 °C 1007.7 hPa ENE 24.1 km/h 40.2 km/h 51% 0 mm 0 W/m2
00:54 18.7 °C 8.4 °C 1007.7 hPa ENE 33.8 km/h 40.2 km/h 51% 0 mm 0 W/m2
00:59 18.6 °C 8.3 °C 1007.7 hPa ENE 29 km/h 43.5 km/h 51% 0 mm 0 W/m2
01:04 18.5 °C 8.2 °C 1007.7 hPa East 20.9 km/h 43.5 km/h 51% 0 mm 0 W/m2
01:09 18.4 °C 8.1 °C 1007.7 hPa ENE 32.2 km/h 40.2 km/h 51% 0 mm 0 W/m2
01:14 18.3 °C 8 °C 1008 hPa ENE 22.5 km/h 40.2 km/h 51% 0 mm 0 W/m2
01:19 18.3 °C 8 °C 1008 hPa East 20.9 km/h 41.8 km/h 51% 0 mm 0 W/m2
01:24 18.2 °C 7.8 °C 1008 hPa ENE 25.7 km/h 41.8 km/h 51% 0 mm 0 W/m2
01:29 18.1 °C 7.8 °C 1008 hPa East 27.4 km/h 45.1 km/h 51% 0 mm 0 W/m2
01:34 18 °C 7.7 °C 1008 hPa ENE 27.4 km/h 45.1 km/h 51% 0 mm 0 W/m2
01:39 17.9 °C 7.9 °C 1008 hPa East 22.5 km/h 37 km/h 52% 0 mm 0 W/m2
01:44 17.7 °C 7.7 °C 1008 hPa East 22.5 km/h 38.6 km/h 52% 0 mm 0 W/m2
01:49 17.4 °C 7.8 °C 1008 hPa ENE 29 km/h 38.6 km/h 53% 0 mm 0 W/m2
01:54 17.3 °C 7.7 °C 1008 hPa ENE 25.7 km/h 38.6 km/h 53% 0 mm 0 W/m2
01:59 17.2 °C 7.6 °C 1008 hPa NE 16.1 km/h 38.6 km/h 53% 0 mm 0 W/m2
02:04 17.1 °C 7.4 °C 1008 hPa ENE 24.1 km/h 43.5 km/h 53% 0 mm 0 W/m2
02:09 17.1 °C 7.4 °C 1008 hPa East 29 km/h 43.5 km/h 53% 0 mm 0 W/m2
02:14 16.9 °C 7.5 °C 1008 hPa East 27.4 km/h 37 km/h 54% 0 mm 0 W/m2
02:19 16.8 °C 7.4 °C 1007.7 hPa East 25.7 km/h 37 km/h 54% 0 mm 0 W/m2
02:24 16.6 °C 7.3 °C 1007.7 hPa ENE 24.1 km/h 40.2 km/h 54% 0 mm 0 W/m2
02:29 16.5 °C 7.4 °C 1007.7 hPa ENE 17.7 km/h 40.2 km/h 55% 0 mm 0 W/m2
02:34 16.4 °C 7.4 °C 1007.7 hPa ENE 22.5 km/h 38.6 km/h 55% 0 mm 0 W/m2
02:39 16.4 °C 7.3 °C 1007.7 hPa ENE 22.5 km/h 43.5 km/h 55% 0 mm 0 W/m2
02:44 16.3 °C 7.2 °C 1007.7 hPa ENE 19.3 km/h 43.5 km/h 55% 0 mm 0 W/m2
02:49 16.2 °C 7.4 °C 1007.3 hPa ENE 22.5 km/h 37 km/h 56% 0 mm 0 W/m2
02:54 16.1 °C 7.3 °C 1007.3 hPa ENE 17.7 km/h 38.6 km/h 56% 0 mm 0 W/m2
02:59 15.9 °C 7.2 °C 1007.3 hPa East 30.6 km/h 38.6 km/h 56% 0 mm 0 W/m2
03:04 15.8 °C 7.3 °C 1007.3 hPa East 20.9 km/h 43.5 km/h 57% 0 mm 0 W/m2
03:09 15.7 °C 7.2 °C 1007.3 hPa ENE 29 km/h 43.5 km/h 57% 0 mm 0 W/m2
03:14 15.6 °C 7.1 °C 1007.3 hPa ENE 29 km/h 40.2 km/h 57% 0 mm 0 W/m2
03:19 15.4 °C 7.2 °C 1007.3 hPa ENE 41.8 km/h 41.8 km/h 58% 0 mm 0 W/m2
03:24 15.4 °C 7.2 °C 1007.3 hPa East 24.1 km/h 41.8 km/h 58% 0 mm 0 W/m2
03:29 15.3 °C 7.1 °C 1007 hPa ENE 27.4 km/h 40.2 km/h 58% 0 mm 0 W/m2
03:34 15.3 °C 7.1 °C 1007 hPa ENE 27.4 km/h 45.1 km/h 58% 0 mm 0 W/m2
03:39 15.3 °C 7.1 °C 1007 hPa ENE 27.4 km/h 45.1 km/h 58% 0 mm 0 W/m2
03:44 15.2 °C 6.9 °C 1007 hPa ENE 27.4 km/h 43.5 km/h 58% 0 mm 0 W/m2
03:49 15.1 °C 6.8 °C 1007 hPa East 30.6 km/h 40.2 km/h 58% 0 mm 0 W/m2
03:54 14.9 °C 6.9 °C 1007 hPa East 24.1 km/h 38.6 km/h 59% 0 mm 0 W/m2
03:59 14.8 °C 6.9 °C 1007 hPa East 22.5 km/h 40.2 km/h 59% 0 mm 0 W/m2
04:04 14.7 °C 6.8 °C 1007 hPa ENE 19.3 km/h 40.2 km/h 59% 0 mm 0 W/m2
04:09 14.7 °C 7 °C 1007 hPa ENE 25.7 km/h 38.6 km/h 60% 0 mm 0 W/m2
04:14 14.6 °C 6.9 °C 1007 hPa ENE 32.2 km/h 37 km/h 60% 0 mm 0 W/m2
04:19 14.5 °C 6.8 °C 1007.3 hPa ENE 20.9 km/h 33.8 km/h 60% 0 mm 0 W/m2
04:24 14.3 °C 6.9 °C 1007 hPa ENE 25.7 km/h 33.8 km/h 61% 0 mm 0 W/m2
04:29 14.3 °C 6.8 °C 1007 hPa ENE 20.9 km/h 33.8 km/h 61% 0 mm 0 W/m2
04:34 14.2 °C 6.8 °C 1007 hPa ENE 24.1 km/h 33.8 km/h 61% 0 mm 0 W/m2
04:39 14.2 °C 7 °C 1007 hPa East 25.7 km/h 37 km/h 62% 0 mm 0 W/m2
04:44 14.1 °C 6.9 °C 1007 hPa East 22.5 km/h 37 km/h 62% 0 mm 0 W/m2
04:49 14 °C 6.8 °C 1007 hPa East 32.2 km/h 35.4 km/h 62% 0 mm 0 W/m2
04:54 13.9 °C 6.9 °C 1007 hPa ENE 25.7 km/h 35.4 km/h 63% 0 mm 0 W/m2
04:59 13.8 °C 6.9 °C 1007 hPa East 16.1 km/h 33.8 km/h 63% 0 mm 0 W/m2
05:04 13.7 °C 7.1 °C 1007 hPa East 14.5 km/h 32.2 km/h 64% 0 mm 0 W/m2
05:09 13.6 °C 6.9 °C 1007 hPa East 17.7 km/h 33.8 km/h 64% 0 mm 0 W/m2
05:14 13.5 °C 6.8 °C 1007 hPa East 27.4 km/h 33.8 km/h 64% 0 mm 0 W/m2
05:19 13.5 °C 7.1 °C 1007 hPa East 20.9 km/h 35.4 km/h 65% 0 mm 0 W/m2
05:24 13.6 °C 7.1 °C 1007 hPa East 22.5 km/h 35.4 km/h 65% 0 mm 0 W/m2
05:29 13.7 °C 7 °C 1006.7 hPa East 24.1 km/h 35.4 km/h 64% 0 mm 0 W/m2
05:34 13.7 °C 7.1 °C 1006.7 hPa ENE 20.9 km/h 35.4 km/h 64% 0 mm 0 W/m2
05:39 13.7 °C 7.2 °C 1007 hPa East 22.5 km/h 35.4 km/h 65% 0 mm 0 W/m2
05:44 13.6 °C 7.1 °C 1007 hPa ENE 16.1 km/h 33.8 km/h 65% 0 mm 0 W/m2
05:49 13.5 °C 7.1 °C 1007 hPa East 20.9 km/h 30.6 km/h 65% 0 mm 0 W/m2
05:54 13.4 °C 7.2 °C 1007 hPa ENE 32.2 km/h 35.4 km/h 66% 0 mm 0 W/m2
05:59 13.6 °C 7.4 °C 1007 hPa East 20.9 km/h 35.4 km/h 66% 0 mm 5 W/m2
06:04 13.7 °C 7.4 °C 1006.7 hPa ENE 24.1 km/h 32.2 km/h 66% 0 mm 7 W/m2
06:09 13.8 °C 7.6 °C 1006.7 hPa East 27.4 km/h 33.8 km/h 66% 0 mm 21 W/m2
06:14 14 °C 7.5 °C 1006.7 hPa East 22.5 km/h 33.8 km/h 65% 0 mm 32 W/m2
06:19 14 °C 7.5 °C 1007 hPa ENE 24.1 km/h 35.4 km/h 65% 0 mm 37 W/m2
06:24 14 °C 7.5 °C 1007 hPa ESE 19.3 km/h 35.4 km/h 65% 0 mm 40 W/m2
06:29 14 °C 7.7 °C 1007 hPa ENE 19.3 km/h 35.4 km/h 66% 0 mm 42 W/m2
06:34 13.9 °C 7.7 °C 1006.7 hPa East 27.4 km/h 33.8 km/h 66% 0 mm 44 W/m2
06:39 14.1 °C 7.8 °C 1007 hPa East 22.5 km/h 38.6 km/h 66% 0 mm 47 W/m2
06:44 14.1 °C 7.8 °C 1006.7 hPa East 24.1 km/h 38.6 km/h 66% 0 mm 51 W/m2
06:49 14.1 °C 7.8 °C 1007 hPa ESE 19.3 km/h 33.8 km/h 66% 0 mm 53 W/m2
06:54 14.1 °C 7.8 °C 1007 hPa ESE 22.5 km/h 33.8 km/h 66% 0 mm 53 W/m2
06:59 14.1 °C 7.8 °C 1007.3 hPa ESE 19.3 km/h 30.6 km/h 66% 0 mm 58 W/m2
07:04 14.2 °C 8.1 °C 1008 hPa SSW 8 km/h 30.6 km/h 67% 0 mm 67 W/m2
07:09 14.2 °C 8.2 °C 1007.7 hPa ESE 11.3 km/h 17.7 km/h 67% 0 mm 69 W/m2
07:14 14.3 °C 8.2 °C 1007.7 hPa East 22.5 km/h 24.1 km/h 67% 0 mm 79 W/m2
07:19 14.3 °C 8.3 °C 1007.7 hPa East 17.7 km/h 25.7 km/h 67% 0 mm 98 W/m2
07:24 14.4 °C 8.3 °C 1007.3 hPa East 14.5 km/h 25.7 km/h 67% 0 mm 111 W/m2
07:29 14.4 °C 8.4 °C 1007.3 hPa East 16.1 km/h 25.7 km/h 67% 0 mm 114 W/m2
07:34 14.4 °C 8.3 °C 1007 hPa East 14.5 km/h 25.7 km/h 67% 0 mm 113 W/m2
07:39 14.5 °C 8.7 °C 1007 hPa ENE 20.9 km/h 29 km/h 68% 0 mm 118 W/m2
07:44 14.6 °C 8.8 °C 1007 hPa East 17.7 km/h 29 km/h 68% 0 mm 144 W/m2
07:46 14.7 °C 8.6 °C 1007 hPa East 16.1 km/h 29 km/h 67% 0 mm 125 W/m2
07:51 14.8 °C 8.7 °C 1007 hPa East 22.5 km/h 30.6 km/h 67% 0 mm 100 W/m2
07:56 14.9 °C 8.8 °C 1007 hPa ESE 16.1 km/h 30.6 km/h 67% 0 mm 69 W/m2
08:01 14.9 °C 8.8 °C 1007 hPa East 24.1 km/h 27.4 km/h 67% 0 mm 63 W/m2
08:06 14.9 °C 9.1 °C 1007 hPa ESE 19.3 km/h 27.4 km/h 68% 0 mm 63 W/m2
08:11 15.1 °C 9.2 °C 1007 hPa East 14.5 km/h 27.4 km/h 68% 0 mm 69 W/m2
08:16 15.1 °C 9.2 °C 1007 hPa East 27.4 km/h 27.4 km/h 68% 0 mm 77 W/m2
08:21 15.2 °C 9.3 °C 1007 hPa East 17.7 km/h 27.4 km/h 68% 0 mm 84 W/m2
08:26 15.2 °C 9.3 °C 1007 hPa ESE 16.1 km/h 27.4 km/h 68% 0 mm 84 W/m2
08:31 15.3 °C 9.4 °C 1007 hPa East 16.1 km/h 27.4 km/h 68% 0 mm 86 W/m2
08:36 15.4 °C 9.5 °C 1007 hPa East 22.5 km/h 25.7 km/h 68% 0 mm 81 W/m2
08:41 15.4 °C 9.6 °C 1006.7 hPa East 11.3 km/h 24.1 km/h 68% 0 mm 74 W/m2
08:46 15.6 °C 9.7 °C 1006.7 hPa East 12.9 km/h 24.1 km/h 68% 0 mm 69 W/m2
08:51 15.7 °C 10.1 °C 1007 hPa East 17.7 km/h 25.7 km/h 69% 0 mm 63 W/m2
08:56 15.9 °C 10.2 °C 1007 hPa ESE 19.3 km/h 25.7 km/h 69% 0 mm 54 W/m2
09:01 16 °C 10.1 °C 1007 hPa ESE 19.3 km/h 24.1 km/h 68% 0 mm 49 W/m2
09:06 16.1 °C 10.2 °C 1006.7 hPa East 17.7 km/h 24.1 km/h 68% 0 mm 42 W/m2
09:11 16.1 °C 10.2 °C 1006.7 hPa ENE 17.7 km/h 24.1 km/h 68% 0 mm 39 W/m2
09:16 16.1 °C 10.4 °C 1006.7 hPa ENE 16.1 km/h 24.1 km/h 69% 0 mm 33 W/m2
09:21 16.1 °C 10.2 °C 1007 hPa East 11.3 km/h 24.1 km/h 68% 0 mm 26 W/m2
09:26 16.1 °C 10.4 °C 1007.7 hPa ESE 8 km/h 24.1 km/h 69% 0 mm 21 W/m2
09:31 16.1 °C 10.4 °C 1008.7 hPa SW 12.9 km/h 17.7 km/h 69% 0 mm 18 W/m2
09:36 15.9 °C 10.5 °C 1009.7 hPa SSW 24.1 km/h 33.8 km/h 70% 0 mm 16 W/m2
09:41 15.7 °C 10.3 °C 1009.7 hPa South 20.9 km/h 33.8 km/h 70% 0 mm 14 W/m2
09:46 15.4 °C 10.4 °C 1009.4 hPa South 8 km/h 29 km/h 72% 0 mm 14 W/m2
09:51 15.1 °C 10.7 °C 1009.4 hPa South 11.3 km/h 24.1 km/h 75% 0 mm 14 W/m2
09:56 14.9 °C 10.9 °C 1009.4 hPa South 11.3 km/h 16.1 km/h 77% 0 mm 14 W/m2
10:01 14.8 °C 11.2 °C 1009.4 hPa SSW 11.3 km/h 20.9 km/h 79% 0 mm 12 W/m2
10:06 15.1 °C 11.6 °C 1009 hPa SSW 11.3 km/h 25.7 km/h 80% 0 mm 12 W/m2
10:11 15.2 °C 11.8 °C 1009.4 hPa SSE 16.1 km/h 25.7 km/h 80% 0 mm 11 W/m2
10:16 15.5 °C 12.1 °C 1009.4 hPa South 19.3 km/h 25.7 km/h 80% 0 mm 9 W/m2
10:21 15.7 °C 12.4 °C 1009 hPa SSW 11.3 km/h 25.7 km/h 81% 0 mm 7 W/m2
10:26 16.2 °C 12.7 °C 1009 hPa SW 11.3 km/h 20.9 km/h 80% 0 mm 7 W/m2
10:31 16.6 °C 12.7 °C 1009 hPa SW 16.1 km/h 25.7 km/h 78% 0 mm 7 W/m2
10:36 16.6 °C 12.8 °C 1009 hPa WSW 16.1 km/h 32.2 km/h 78% 0 mm 7 W/m2
10:41 16.6 °C 12.8 °C 1009 hPa SW 25.7 km/h 35.4 km/h 78% 0 mm 7 W/m2
10:46 16.5 °C 12.8 °C 1009 hPa SW 16.1 km/h 35.4 km/h 79% 0 mm 7 W/m2
10:51 16.3 °C 12.9 °C 1008.7 hPa WSW 11.3 km/h 29 km/h 80% 0.25 mm 9 W/m2
10:56 16.4 °C 12.9 °C 1008.7 hPa NW 12.9 km/h 20.9 km/h 80% 0.25 mm 12 W/m2
11:01 16.1 °C 13.1 °C 1008 hPa NW 22.5 km/h 24.1 km/h 82% 0.51 mm 16 W/m2
11:06 15.6 °C 12.9 °C 1008.4 hPa NW 16.1 km/h 25.7 km/h 84% 0.76 mm 18 W/m2
11:11 15.6 °C 13.1 °C 1007.3 hPa North 19.3 km/h 25.7 km/h 85% 0.76 mm 12 W/m2
11:16 15.4 °C 13.1 °C 1007.3 hPa North 16.1 km/h 24.1 km/h 86% 1.27 mm 14 W/m2
11:21 15.4 °C 13.2 °C 1007 hPa NNW 17.7 km/h 24.1 km/h 87% 1.27 mm 14 W/m2
11:26 15.3 °C 13.2 °C 1006.7 hPa NE 12.9 km/h 25.7 km/h 87% 1.52 mm 21 W/m2
11:31 15.5 °C 13.2 °C 1006.3 hPa NE 14.5 km/h 25.7 km/h 86% 1.52 mm 28 W/m2
11:36 15.6 °C 13.2 °C 1006.3 hPa ENE 12.9 km/h 22.5 km/h 86% 1.52 mm 35 W/m2
11:41 15.6 °C 13.2 °C 1006.3 hPa NE 11.3 km/h 17.7 km/h 86% 1.52 mm 47 W/m2
11:46 15.6 °C 13.3 °C 1006.3 hPa NE 9.7 km/h 17.7 km/h 86% 1.52 mm 62 W/m2
11:51 15.7 °C 13.3 °C 1006.7 hPa NNE 8 km/h 14.5 km/h 86% 1.27 mm 62 W/m2
11:56 15.8 °C 13.4 °C 1006.7 hPa NE 6.4 km/h 12.9 km/h 86% 1.27 mm 58 W/m2
12:01 15.8 °C 13.5 °C 1006.3 hPa NNE 11.3 km/h 12.9 km/h 86% 1.02 mm 62 W/m2
12:06 15.9 °C 13.7 °C 1006.3 hPa ENE 12.9 km/h 12.9 km/h 87% 0.76 mm 76 W/m2
12:11 16 °C 13.8 °C 1005.3 hPa ENE 14.5 km/h 20.9 km/h 87% 0.76 mm 148 W/m2
12:16 16.2 °C 13.9 °C 1004.6 hPa NE 19.3 km/h 27.4 km/h 86% 0.25 mm 209 W/m2
12:21 17.1 °C 14 °C 1004.6 hPa NE 12.9 km/h 27.4 km/h 82% 0.25 mm 232 W/m2
12:26 17.9 °C 14.1 °C 1004.6 hPa East 20.9 km/h 27.4 km/h 78% 0 mm 237 W/m2
12:31 18.4 °C 13.9 °C 1005 hPa ESE 17.7 km/h 30.6 km/h 75% 0 mm 190 W/m2
12:36 18.7 °C 13.8 °C 1005.3 hPa ESE 12.9 km/h 30.6 km/h 73% 0 mm 111 W/m2
12:41 18.9 °C 13.9 °C 1006 hPa SE 6.4 km/h 24.1 km/h 73% 0 mm 25 W/m2
12:46 18.7 °C 14.2 °C 1007.3 hPa West 8 km/h 24.1 km/h 75% 0 mm 18 W/m2
12:51 18.4 °C 14.1 °C 1007.3 hPa WSW 14.5 km/h 20.9 km/h 76% 0.25 mm 30 W/m2
12:56 18.1 °C 13.6 °C 1006.7 hPa SE 12.9 km/h 20.9 km/h 75% 0.51 mm 23 W/m2
13:01 18.1 °C 14.2 °C 1007.3 hPa South 8 km/h 19.3 km/h 78% 0.51 mm 23 W/m2
13:06 17.8 °C 14.3 °C 1007 hPa SSE 16.1 km/h 16.1 km/h 80% 0.51 mm 21 W/m2
13:11 17.4 °C 13.9 °C 1006.3 hPa ESE 17.7 km/h 29 km/h 80% 0.76 mm 21 W/m2
13:13 17.3 °C 14 °C 1006.3 hPa SE 14.5 km/h 29 km/h 81% 0.76 mm 19 W/m2
13:18 17 °C 13.9 °C 1006 hPa East 20.9 km/h 29 km/h 82% 0.76 mm 21 W/m2
13:23 17.3 °C 13.6 °C 1005.6 hPa ENE 6.4 km/h 22.5 km/h 79% 0.76 mm 25 W/m2
13:28 17.9 °C 13.6 °C 1005.3 hPa East 9.7 km/h 22.5 km/h 76% 0.76 mm 28 W/m2
13:33 18.2 °C 13.5 °C 1005 hPa East 14.5 km/h 20.9 km/h 74% 0.76 mm 37 W/m2
13:38 18.3 °C 13.6 °C 1005 hPa ESE 20.9 km/h 22.5 km/h 74% 0.76 mm 37 W/m2
13:43 18.2 °C 13.7 °C 1005.6 hPa SE 17.7 km/h 22.5 km/h 75% 0.76 mm 28 W/m2
13:48 17.7 °C 13.8 °C 1006 hPa ESE 24.1 km/h 35.4 km/h 78% 0.76 mm 25 W/m2
13:53 17.2 °C 13.9 °C 1006 hPa ESE 40.2 km/h 45.1 km/h 81% 0.25 mm 21 W/m2
13:58 16.8 °C 13.9 °C 1004.6 hPa East 35.4 km/h 49.9 km/h 83% 0.25 mm 26 W/m2
14:03 16.7 °C 13.6 °C 1003.9 hPa East 40.2 km/h 54.7 km/h 82% 0.25 mm 26 W/m2
14:08 16.7 °C 13.6 °C 1003.9 hPa ESE 27.4 km/h 54.7 km/h 82% 0 mm 26 W/m2
14:13 16.7 °C 13.8 °C 1004.6 hPa ESE 24.1 km/h 54.7 km/h 83% 0 mm 21 W/m2
14:18 16.5 °C 13.8 °C 1004.6 hPa SE 33.8 km/h 54.7 km/h 84% 0 mm 21 W/m2
14:23 16.4 °C 13.7 °C 1004.3 hPa ESE 27.4 km/h 51.5 km/h 84% 0 mm 19 W/m2
14:28 16.4 °C 13.7 °C 1004.6 hPa SE 24.1 km/h 51.5 km/h 84% 0 mm 23 W/m2
14:33 16.6 °C 13.7 °C 1004.6 hPa SE 24.1 km/h 43.5 km/h 83% 0 mm 26 W/m2
14:38 16.7 °C 13.6 °C 1004.6 hPa ESE 20.9 km/h 37 km/h 82% 0 mm 39 W/m2
14:43 16.8 °C 13.6 °C 1004.6 hPa ESE 16.1 km/h 32.2 km/h 81% 0 mm 44 W/m2
14:48 16.9 °C 13.4 °C 1005 hPa SSE 9.7 km/h 24.1 km/h 80% 0 mm 37 W/m2
14:53 16.9 °C 13.4 °C 1005.3 hPa West 16.1 km/h 24.1 km/h 80% 0 mm 25 W/m2
14:58 16.8 °C 13.5 °C 1005 hPa NNE 8 km/h 24.1 km/h 81% 0 mm 23 W/m2
15:03 16.9 °C 13.4 °C 1005.3 hPa NNW 17.7 km/h 24.1 km/h 80% 0 mm 25 W/m2
15:08 16.9 °C 13.4 °C 1005 hPa ENE 12.9 km/h 20.9 km/h 80% 0 mm 30 W/m2
15:13 17 °C 13.3 °C 1005 hPa ENE 4.8 km/h 20.9 km/h 79% 0 mm 25 W/m2
15:18 17 °C 13.5 °C 1005 hPa North 9.7 km/h 14.5 km/h 80% 0 mm 18 W/m2
15:23 16.9 °C 13.6 °C 1004.6 hPa NNE 14.5 km/h 14.5 km/h 81% 0 mm 14 W/m2
15:28 16.7 °C 13.4 °C 1003.9 hPa NE 14.5 km/h 19.3 km/h 81% 0 mm 14 W/m2
15:33 16.6 °C 13.5 °C 1004.3 hPa NNE 16.1 km/h 29 km/h 82% 0 mm 18 W/m2
15:38 16.7 °C 13.4 °C 1004.6 hPa NNE 12.9 km/h 29 km/h 81% 0 mm 18 W/m2
15:43 16.7 °C 13.4 °C 1004.3 hPa NE 25.7 km/h 25.7 km/h 81% 0 mm 21 W/m2
15:48 16.7 °C 13.4 °C 1005 hPa SE 14.5 km/h 25.7 km/h 81% 0 mm 23 W/m2
15:53 16.7 °C 13.4 °C 1005 hPa North 4.8 km/h 25.7 km/h 81% 0 mm 28 W/m2
15:58 16.6 °C 13.3 °C 1004.6 hPa NE 8 km/h 16.1 km/h 81% 0 mm 32 W/m2
16:03 16.7 °C 13.6 °C 1006 hPa West 9.7 km/h 17.7 km/h 82% 0 mm 30 W/m2
16:08 16.6 °C 13.4 °C 1006.7 hPa West 14.5 km/h 20.9 km/h 82% 0 mm 33 W/m2
16:13 16.5 °C 13.6 °C 1006.3 hPa NW 9.7 km/h 20.9 km/h 83% 0 mm 25 W/m2
16:18 16.6 °C 13.4 °C 1006 hPa North 9.7 km/h 16.1 km/h 82% 0 mm 21 W/m2
16:23 16.5 °C 13.4 °C 1006.3 hPa NNW 9.7 km/h 16.1 km/h 82% 0 mm 18 W/m2
16:28 16.5 °C 13.4 °C 1006.3 hPa North 8 km/h 16.1 km/h 82% 0 mm 14 W/m2
16:33 16.5 °C 13.4 °C 1006.7 hPa NW 9.7 km/h 16.1 km/h 82% 0 mm 12 W/m2
16:38 16.4 °C 13.5 °C 1006.3 hPa NNW 9.7 km/h 16.1 km/h 83% 0 mm 12 W/m2
16:43 16.4 °C 13.5 °C 1006.7 hPa NNE 9.7 km/h 17.7 km/h 83% 0 mm 12 W/m2
16:48 16.4 °C 13.7 °C 1006.3 hPa NNE 6.4 km/h 17.7 km/h 84% 0 mm 12 W/m2
16:53 16.3 °C 13.6 °C 1006 hPa NNE 12.9 km/h 16.1 km/h 84% 0 mm 12 W/m2
16:58 16.3 °C 13.6 °C 1006 hPa NE 8 km/h 16.1 km/h 84% 0 mm 12 W/m2
17:03 16.3 °C 13.8 °C 1005.6 hPa NE 12.9 km/h 16.1 km/h 85% 0 mm 12 W/m2
17:08 16.3 °C 13.8 °C 1005.6 hPa NE 8 km/h 17.7 km/h 85% 0 mm 12 W/m2
17:13 16.2 °C 13.7 °C 1006 hPa ENE 3.2 km/h 17.7 km/h 85% 0 mm 14 W/m2
17:18 16.2 °C 13.7 °C 1005.6 hPa NE 3.2 km/h 12.9 km/h 85% 0 mm 16 W/m2
17:23 16.1 °C 13.7 °C 1006.7 hPa WSW 14.5 km/h 14.5 km/h 86% 0 mm 19 W/m2
17:28 15.8 °C 13.7 °C 1007 hPa West 9.7 km/h 19.3 km/h 87% 0 mm 19 W/m2
17:33 15.8 °C 13.6 °C 1006.7 hPa NW 6.4 km/h 19.3 km/h 87% 0 mm 19 W/m2
17:38 15.7 °C 13.6 °C 1006.7 hPa NW 6.4 km/h 14.5 km/h 87% 0 mm 18 W/m2
17:43 15.7 °C 13.7 °C 1006 hPa NE 4.8 km/h 9.7 km/h 88% 0 mm 16 W/m2
17:48 15.6 °C 13.6 °C 1005.6 hPa NNE 11.3 km/h 12.9 km/h 88% 0 mm 16 W/m2
17:53 15.6 °C 13.6 °C 1005.3 hPa NNE 11.3 km/h 16.1 km/h 88% 0 mm 14 W/m2
17:58 15.6 °C 13.6 °C 1005.6 hPa NNE 19.3 km/h 24.1 km/h 88% 0 mm 12 W/m2
18:03 15.6 °C 13.7 °C 1005.6 hPa NE 14.5 km/h 24.1 km/h 89% 0 mm 12 W/m2
18:08 15.6 °C 13.6 °C 1005.3 hPa NE 14.5 km/h 24.1 km/h 88% 0 mm 12 W/m2
18:13 15.6 °C 13.8 °C 1005 hPa NE 20.9 km/h 24.1 km/h 89% 0 mm 12 W/m2
18:18 15.6 °C 13.8 °C 1005 hPa NE 19.3 km/h 29 km/h 89% 0 mm 11 W/m2
18:23 15.5 °C 13.7 °C 1005 hPa NE 16.1 km/h 29 km/h 89% 0 mm 12 W/m2
18:28 15.4 °C 13.7 °C 1006 hPa NNE 8 km/h 27.4 km/h 89% 0 mm 12 W/m2
18:33 15.4 °C 13.6 °C 1007.3 hPa SE 14.5 km/h 20.9 km/h 89% 0 mm 12 W/m2
18:38 15.4 °C 13.7 °C 1007.3 hPa ESE 16.1 km/h 20.9 km/h 89% 0 mm 12 W/m2
18:43 15.4 °C 13.7 °C 1007 hPa SSE 12.9 km/h 20.9 km/h 89% 0 mm 12 W/m2
18:49 15.4 °C 13.6 °C 1007.3 hPa East 8 km/h 20.9 km/h 89% 0 mm 14 W/m2
18:54 15.4 °C 13.6 °C 1007.3 hPa ESE 4.8 km/h 17.7 km/h 89% 0 mm 16 W/m2
18:59 15.3 °C 13.6 °C 1007 hPa ENE 3.2 km/h 12.9 km/h 89% 0 mm 19 W/m2
19:04 15.3 °C 13.6 °C 1007.3 hPa ESE 8 km/h 12.9 km/h 89% 0 mm 19 W/m2
19:09 15.3 °C 13.5 °C 1007 hPa ENE 11.3 km/h 14.5 km/h 89% 0 mm 16 W/m2
19:14 15.2 °C 13.6 °C 1007.3 hPa East 11.3 km/h 14.5 km/h 90% 0 mm 11 W/m2
19:19 15.2 °C 13.6 °C 1007.7 hPa ESE 14.5 km/h 16.1 km/h 90% 0 mm 9 W/m2
19:24 15.1 °C 13.5 °C 1007.7 hPa ESE 14.5 km/h 16.1 km/h 90% 0 mm 7 W/m2
19:29 15.2 °C 13.6 °C 1007.7 hPa SE 17.7 km/h 17.7 km/h 90% 0 mm 7 W/m2
19:34 15.4 °C 13.6 °C 1007.3 hPa SE 14.5 km/h 20.9 km/h 89% 0 mm 7 W/m2
19:39 15.7 °C 13.4 °C 1007 hPa SE 11.3 km/h 20.9 km/h 86% 0 mm 7 W/m2
19:44 15.9 °C 13.4 °C 1007.3 hPa SE 14.5 km/h 22.5 km/h 85% 0 mm 5 W/m2
19:49 16.1 °C 13.2 °C 1007.7 hPa SSE 12.9 km/h 22.5 km/h 83% 0 mm 5 W/m2
19:54 16.3 °C 13.4 °C 1008 hPa SSE 12.9 km/h 20.9 km/h 83% 0 mm 5 W/m2
19:59 16.3 °C 13.3 °C 1008 hPa SSE 12.9 km/h 20.9 km/h 82% 0 mm 0 W/m2
20:04 16.4 °C 13.3 °C 1008 hPa SSE 8 km/h 20.9 km/h 82% 0 mm 0 W/m2
20:09 16.4 °C 13.3 °C 1007.7 hPa SSE 16.1 km/h 24.1 km/h 82% 0 mm 0 W/m2
20:14 16.4 °C 13.3 °C 1008 hPa SSE 11.3 km/h 25.7 km/h 82% 0 mm 0 W/m2
20:19 16.3 °C 13.4 °C 1009 hPa SW 12.9 km/h 25.7 km/h 83% 0 mm 0 W/m2
20:24 16.1 °C 13.4 °C 1009.4 hPa SW 14.5 km/h 22.5 km/h 84% 0 mm 0 W/m2
20:29 15.9 °C 13.4 °C 1008.7 hPa South 9.7 km/h 19.3 km/h 85% 0 mm 0 W/m2
20:34 15.8 °C 13.3 °C 1008.7 hPa SSE 17.7 km/h 22.5 km/h 85% 0.25 mm 0 W/m2
20:39 15.8 °C 13.4 °C 1009 hPa South 17.7 km/h 24.1 km/h 86% 0.25 mm 0 W/m2
20:44 15.7 °C 13.3 °C 1008.7 hPa SSE 9.7 km/h 24.1 km/h 86% 0.51 mm 0 W/m2
20:49 15.5 °C 13.3 °C 1008.4 hPa SSE 20.9 km/h 22.5 km/h 87% 0.76 mm 0 W/m2
20:54 15.3 °C 13.3 °C 1008 hPa SE 14.5 km/h 25.7 km/h 88% 1.02 mm 0 W/m2
20:59 15.3 °C 13.3 °C 1008 hPa SSE 19.3 km/h 25.7 km/h 88% 1.02 mm 0 W/m2
21:04 15.2 °C 13.4 °C 1007.7 hPa South 17.7 km/h 22.5 km/h 89% 1.02 mm 0 W/m2
21:09 15.1 °C 13.5 °C 1007.3 hPa SSE 17.7 km/h 25.7 km/h 90% 1.02 mm 0 W/m2
21:14 15.2 °C 13.6 °C 1007.3 hPa SSE 19.3 km/h 27.4 km/h 90% 1.02 mm 0 W/m2
21:19 15.1 °C 13.5 °C 1007 hPa SSE 19.3 km/h 27.4 km/h 90% 1.02 mm 0 W/m2
21:24 15.1 °C 13.5 °C 1007 hPa SE 16.1 km/h 27.4 km/h 90% 1.02 mm 0 W/m2
21:29 15.1 °C 13.5 °C 1006.7 hPa SSE 19.3 km/h 27.4 km/h 90% 1.02 mm 0 W/m2
21:34 15.1 °C 13.4 °C 1006.7 hPa SSE 24.1 km/h 27.4 km/h 90% 0.76 mm 0 W/m2
21:39 15.1 °C 13.4 °C 1006.7 hPa SSE 19.3 km/h 27.4 km/h 90% 0.76 mm 0 W/m2
21:44 15 °C 13.4 °C 1006.7 hPa SSE 16.1 km/h 25.7 km/h 90% 0.51 mm 0 W/m2
21:49 15 °C 13.6 °C 1006.3 hPa SE 16.1 km/h 25.7 km/h 91% 0.25 mm 0 W/m2
21:54 15 °C 13.6 °C 1006.7 hPa SE 16.1 km/h 25.7 km/h 91% 0 mm 0 W/m2
21:59 15 °C 13.6 °C 1006.7 hPa SE 12.9 km/h 25.7 km/h 91% 0 mm 0 W/m2
22:04 14.9 °C 13.4 °C 1006.7 hPa ESE 20.9 km/h 27.4 km/h 91% 0 mm 0 W/m2
22:09 14.9 °C 13.4 °C 1006.7 hPa SE 20.9 km/h 27.4 km/h 91% 0.25 mm 0 W/m2
22:14 14.9 °C 13.4 °C 1006.7 hPa SE 19.3 km/h 27.4 km/h 91% 0.25 mm 0 W/m2
22:19 14.8 °C 13.4 °C 1006.3 hPa SE 16.1 km/h 30.6 km/h 91% 0.25 mm 0 W/m2
22:24 14.9 °C 13.4 °C 1006.3 hPa SE 17.7 km/h 30.6 km/h 91% 0.25 mm 0 W/m2
22:29 14.9 °C 13.5 °C 1006.3 hPa ESE 12.9 km/h 30.6 km/h 91% 0.25 mm 0 W/m2
22:34 14.9 °C 13.3 °C 1006.3 hPa ESE 17.7 km/h 29 km/h 90% 0.25 mm 0 W/m2
22:39 14.9 °C 13.3 °C 1006 hPa ESE 19.3 km/h 30.6 km/h 90% 0.25 mm 0 W/m2
22:44 14.9 °C 13.3 °C 1006 hPa East 27.4 km/h 30.6 km/h 90% 0.25 mm 0 W/m2
22:49 14.9 °C 13.3 °C 1005.3 hPa East 32.2 km/h 35.4 km/h 90% 0.25 mm 0 W/m2
22:54 15 °C 13.2 °C 1005.3 hPa East 33.8 km/h 43.5 km/h 89% 0.25 mm 0 W/m2
22:59 15 °C 13.2 °C 1005.3 hPa ESE 29 km/h 45.1 km/h 89% 0.25 mm 0 W/m2
23:04 15.1 °C 13.3 °C 1005.3 hPa East 25.7 km/h 45.1 km/h 89% 0.25 mm 0 W/m2
23:09 15.2 °C 13.2 °C 1005.6 hPa ESE 27.4 km/h 45.1 km/h 88% 0 mm 0 W/m2
23:14 15.1 °C 13.1 °C 1005.3 hPa ESE 25.7 km/h 41.8 km/h 88% 0 mm 0 W/m2
23:19 15 °C 13 °C 1006 hPa East 38.6 km/h 46.7 km/h 88% 0 mm 0 W/m2
23:24 14.9 °C 13.2 °C 1006.7 hPa ESE 20.9 km/h 46.7 km/h 89% 0 mm 0 W/m2
23:29 14.9 °C 13.2 °C 1007.7 hPa SW 4.8 km/h 45.1 km/h 89% 0 mm 0 W/m2
23:34 14.9 °C 13.1 °C 1008.7 hPa WSW 16.1 km/h 35.4 km/h 89% 0 mm 0 W/m2
23:39 14.8 °C 13.2 °C 1008.7 hPa NNE 6.4 km/h 29 km/h 90% 0 mm 0 W/m2
23:44 14.8 °C 13.1 °C 1008.7 hPa SSE 4.8 km/h 20.9 km/h 89% 0 mm 0 W/m2
23:49 14.9 °C 13.1 °C 1009.4 hPa SW 9.7 km/h 14.5 km/h 89% 0 mm 0 W/m2
23:54 14.9 °C 13.1 °C 1009 hPa SE 12.9 km/h 16.1 km/h 89% 0 mm 0 W/m2
23:59 15.1 °C 13.1 °C 1008.7 hPa SE 9.7 km/h 17.7 km/h 88% 0 mm 0 W/m2
Bismarck, North Dakota, USA
Compliments of Weather Underground - 4 mb